Flight Track Log - Related Links

Times and Time Zones

All times are in EDT time to prevent confusion due to time zone crossing. See the N717AN flight status page for this flight to view local times or setup timezone preferences in your user account.

Time Position Orientation Groundspeed Altitude Reporting Facility
EDT Latitude Longitude Course Direction KTS MPH feet Rate Location/Type
Sun 10:36:57 PM 40.6300 -73.7750 118° Southeast 180 207 500  Level FlightAware ADS-B
Sun 10:37:12 PM 40.6220 -73.7620 129° Southeast 181 208 1,100 1,600 Climbing FlightAware ADS-B
Sun 10:37:27 PM 40.6110 -73.7520 145° Southeast 193 222 1,300 900 Climbing FlightAware ADS-B
Sun 10:37:52 PM 40.5880 -73.7370 154° Southeast 228 262 1,700 1,636 Climbing FlightAware ADS-B
Sun 10:38:22 PM 40.5590 -73.7180 154° Southeast 242 278 2,800 2,291 Climbing FlightAware ADS-B
Sun 10:38:47 PM 40.5330 -73.7030 156° South 246 283 3,800 2,462 Climbing FlightAware ADS-B
Sun 10:39:01 PM 40.5169 -73.6885 146° Southeast 256 295 4,400 2,211 Climbing FlightAware ADS-B
Sun 10:39:06 PM 40.5130 -73.6839 138° Southeast 261 300 4,500 1,846 Climbing FlightAware ADS-B
Sun 10:39:14 PM 40.5065 -73.6737 130° Southeast 266 306 4,800 2,400 Climbing FlightAware ADS-B
Sun 10:39:21 PM 40.5018 -73.6640 123° Southeast 267 307 5,100 3,231 Climbing FlightAware ADS-B
Sun 10:39:40 PM 40.4905 -73.6375 119° Southeast 261 300 6,200 3,097 Climbing FlightAware ADS-B
Sun 10:39:52 PM 40.4837 -73.6215 119° Southeast 260 299 6,700 2,571 Climbing FlightAware ADS-B
Sun 10:40:01 PM 40.4789 -73.6094 118° Southeast 260 299 7,100 1,909 Climbing FlightAware ADS-B
Sun 10:40:14 PM 40.4714 -73.5895 116° Southeast 271 312 7,400 1,448 Climbing FlightAware ADS-B
Sun 10:40:30 PM 40.4624 -73.5654 116° Southeast 280 322 7,800 2,000 Climbing FlightAware ADS-B
Sun 10:40:44 PM 40.4539 -73.5443 118° Southeast 281 323 8,400 2,571 Climbing FlightAware ADS-B
Sun 10:40:58 PM 40.4450 -73.5230 119° Southeast 283 326 9,000 2,276 Climbing FlightAware ADS-B
Sun 10:41:13 PM 40.4359 -73.5014 119° Southeast 286 329 9,500 1,733 Climbing FlightAware ADS-B
Sun 10:41:43 PM 40.4165 -73.4543 118° Southeast 303 349 10,300 1,286 Climbing FlightAware ADS-B
Sun 10:42:09 PM 40.3971 -73.4090 119° Southeast 333 383 10,700 1,227 Climbing FlightAware ADS-B
Sun 10:42:27 PM 40.3837 -73.3767 119° Southeast 344 396 11,200 1,882 Climbing FlightAware ADS-B
Sun 10:43:00 PM 40.3580 -73.3151 119° Southeast 359 413 12,300 2,095 Climbing FlightAware ADS-B
Sun 10:43:30 PM 40.3327 -73.2566 120° Southeast 373 429 13,400 2,233 Climbing FlightAware ADS-B
Sun 10:43:43 PM 40.3202 -73.2332 125° Southeast 375 432 13,900 2,217 Climbing FlightAware ADS-B
Sun 10:44:16 PM 40.2854 -73.1724 127° Southeast 384 442 15,100 2,667 Climbing FlightAware ADS-B
Sun 10:44:46 PM 40.2519 -73.1164 128° Southeast 382 440 16,700 2,509 Climbing FlightAware ADS-B
Sun 10:45:11 PM 40.2197 -73.0773 137° Southeast 387 445 17,400 1,421 Climbing FlightAware ADS-B
Sun 10:45:24 PM 40.1997 -73.0622 150° Southeast 395 455 17,600 783 Climbing FlightAware ADS-B
Sun 10:45:34 PM 40.1821 -73.0530 158° South 403 464 17,700 1,463 Climbing FlightAware ADS-B
Sun 10:46:05 PM 40.1274 -73.0262 159° South 415 478 18,600 1,672 Climbing FlightAware ADS-B
Sun 10:46:35 PM 40.0726 -72.9992 159° South 428 493 19,400 1,600 Climbing FlightAware ADS-B
Sun 10:47:05 PM 40.0157 -72.9700 159° South 441 507 20,200 1,672 Climbing FlightAware ADS-B
Sun 10:47:36 PM 39.9566 -72.9400 159° South 447 514 21,100 1,839 Climbing FlightAware ADS-B
Sun 10:48:07 PM 39.8953 -72.9093 159° South 455 524 22,100 1,742 Climbing FlightAware ADS-B
Sun 10:48:38 PM 39.8340 -72.8788 159° South 464 534 22,900 1,574 Climbing FlightAware ADS-B
Sun 10:49:08 PM 39.7731 -72.8488 159° South 471 542 23,700 1,662 Climbing FlightAware ADS-B
Sun 10:49:43 PM 39.7008 -72.8132 159° South 476 548 24,700 1,595 Climbing FlightAware ADS-B
Sun 10:50:27 PM 39.6170 -72.7720 159° South 481 554 25,800 1,500 Climbing FlightAware ADS-B
Sun 10:51:11 PM 39.5185 -72.7235 159° South 481 554 26,900 1,421 Climbing FlightAware ADS-B
Sun 10:51:43 PM 39.4488 -72.6894 159° South 496 571 27,600 1,342 Climbing FlightAware ADS-B
Sun 10:52:27 PM 39.3531 -72.6426 159° South 504 580 28,600 1,200 Climbing FlightAware ADS-B
Sun 10:53:03 PM 39.2760 -72.6051 159° South 510 587 29,200 1,075 Climbing FlightAware ADS-B
Sun 10:53:34 PM 39.2069 -72.5715 159° South 515 593 29,800 1,333 Climbing FlightAware ADS-B
Sun 10:54:06 PM 39.1351 -72.5366 159° South 516 594 30,600 1,161 Climbing FlightAware ADS-B
Sun 10:54:36 PM 39.0671 -72.5033 159° South 516 594 31,000 393 Climbing FlightAware ADS-B
Sun 10:55:07 PM 38.9985 -72.4698 159° South 517 595 31,000  Level FlightAware ADS-B
Sun 10:55:37 PM 38.9309 -72.4369 159° South 518 596 31,000  Level FlightAware ADS-B
Sun 10:56:09 PM 38.8606 -72.4027 159° South 519 597 31,000  Level FlightAware ADS-B
Sun 10:56:40 PM 38.7904 -72.3687 159° South 518 596 31,000  Level FlightAware ADS-B
Sun 10:59:12 PM 38.4780 -72.2180 159° South 516 594 31,000  Level FlightAware ADS-B
Sun 10:59:52 PM 38.4030 -72.1810 159° South 516 594 31,000  Level FlightAware ADS-B
Sun 11:00:32 PM 38.3270 -72.1440 159° South 516 594 31,000  Level FlightAware ADS-B
Sun 11:01:17 PM 38.2020 -72.0850 160° South 517 595 31,000  Level FlightAware ADS-B
Sun 11:01:57 PM 38.1260 -72.0480 159° South 517 595 31,000  Level FlightAware ADS-B
Sun 11:02:47 PM 38.0310 -72.0020 159° South 517 595 31,000  Level FlightAware ADS-B
Sun 11:03:27 PM 37.9550 -71.9650 159° South 517 595 31,000  Level FlightAware ADS-B
Sun 11:04:07 PM 37.8790 -71.9280 159° South 517 595 31,000  Level FlightAware ADS-B
Sun 11:04:47 PM 37.8030 -71.8910 159° South 517 595 31,000  Level FlightAware ADS-B
Sun 11:05:27 PM 37.7270 -71.8540 159° South 517 595 31,000  Level FlightAware ADS-B
Sun 11:06:17 PM 37.6320 -71.8080 159° South 517 595 31,000  Level FlightAware ADS-B
Sun 11:06:57 PM 37.5570 -71.7720 159° South 517 595 31,000  Level FlightAware ADS-B
Sun 11:07:37 PM 37.4810 -71.7350 159° South 517 595 31,000  Level FlightAware ADS-B
Sun 11:08:17 PM 37.4050 -71.6980 159° South 517 595 31,000  Level FlightAware ADS-B
Sun 11:08:57 PM 37.3290 -71.6610 159° South 517 595 31,000  Level FlightAware ADS-B
Sun 11:09:47 PM 37.2340 -71.6160 159° South 517 595 31,000  Level FlightAware ADS-B
Sun 11:10:27 PM 37.1580 -71.5790 159° South 517 595 31,000  Level FlightAware ADS-B
Sun 11:15:00 PM 36.5416 -71.6063 175° South  Level FlightAware Approximate
Sun 11:16:00 PM 36.4076 -71.5914 175° South  Level FlightAware Approximate
Sun 11:16:19 PM 36.1167 -71.5667 177° South 514 592 31,000  Level New York Oceanic (ODAPS)
Sun 11:17:00 PM 36.2737 -71.5766 175° South  Level FlightAware Approximate
Sun 11:18:00 PM 36.1396 -71.5627 176° South  Level FlightAware Approximate
Sun 11:19:00 PM 36.0055 -71.5504 176° South  Level FlightAware Approximate
Sun 11:19:39 PM 35.6333 -71.5333 168° South 521 600 31,000  Level New York Oceanic (ODAPS)
Sun 11:20:00 PM 35.8713 -71.5382 176° South  Level FlightAware Approximate
Sun 11:21:00 PM 35.7372 -71.5261 176° South  Level FlightAware Approximate
Sun 11:22:00 PM 35.2207 -71.4276 168° South 514 592 31,000  Level FlightAware Transoceanic
Sun 11:23:00 PM 35.0831 -71.3926 168° South 514 592 31,000  Level FlightAware Transoceanic
Sun 11:24:00 PM 34.9455 -71.3577 168° South 514 592 31,000  Level FlightAware Transoceanic
Sun 11:25:00 PM 34.8079 -71.3230 168° South 521 600 31,000  Level FlightAware Transoceanic
Sun 11:26:00 PM 34.6703 -71.2883 168° South 521 600 31,000  Level FlightAware Transoceanic
Sun 11:26:27 PM 34.6667 -71.2833 168° South 521 600 31,000  Level New York Oceanic (ODAPS)
Sun 11:27:00 PM 34.5327 -71.2538 168° South 521 600 31,000  Level FlightAware Transoceanic
Sun 11:28:00 PM 34.3951 -71.2194 168° South 521 600 31,000  Level FlightAware Transoceanic
Sun 11:29:00 PM 34.2574 -71.1850 168° South 521 600 31,000  Level FlightAware Transoceanic
Sun 11:30:00 PM 34.1198 -71.1508 168° South 521 600 31,000  Level FlightAware Transoceanic
Sun 11:30:13 PM 34.1333 -71.1500 168° South 517 595 31,000  Level New York Oceanic (ODAPS)
Sun 11:31:00 PM 33.9821 -71.1168 168° South 521 600 31,000  Level FlightAware Transoceanic
Sun 11:32:00 PM 33.8415 -71.0788 168° South 521 600 31,000  Level FlightAware Transoceanic
Sun 11:33:00 PM 33.7040 -71.0451 168° South 521 600 31,000  Level FlightAware Transoceanic
Sun 11:33:36 PM 33.6833 -71.0333 169° South 517 595 31,000  Level New York Oceanic (ODAPS)
Sun 11:34:00 PM 33.5664 -71.0115 169° South 521 600 31,000  Level FlightAware Transoceanic
Sun 11:35:00 PM 33.4288 -70.9780 169° South 521 600 31,000  Level FlightAware Transoceanic
Sun 11:36:00 PM 33.3042 -70.9473 169° South 517 595 31,000  Level FlightAware Transoceanic
Sun 11:37:00 PM 33.1660 -70.9139 169° South 517 595 31,000  Level FlightAware Transoceanic
Sun 11:38:00 PM 33.0278 -70.8806 169° South 517 595 31,000  Level FlightAware Transoceanic
Sun 11:39:00 PM 32.8629 -70.8364 169° South 517 595 31,000  Level FlightAware Transoceanic
Sun 11:40:00 PM 32.7262 -70.8040 169° South 517 595 31,000  Level FlightAware Transoceanic
Sun 11:41:00 PM 32.5894 -70.7716 169° South 517 595 31,000  Level FlightAware Transoceanic
Sun 11:42:00 PM 32.4526 -70.7393 169° South 517 595 31,000  Level FlightAware Transoceanic
Sun 11:43:00 PM 32.3158 -70.7072 169° South 517 595 31,000  Level FlightAware Transoceanic
Sun 11:44:00 PM 32.1791 -70.6751 169° South 517 595 31,000  Level FlightAware Transoceanic
Sun 11:44:10 PM 32.1667 -70.6667 169° South 521 600 31,000  Level New York Oceanic (ODAPS)
Sun 11:45:00 PM 32.0422 -70.6431 169° South 517 595 31,000  Level FlightAware Transoceanic
Sun 11:46:00 PM 31.9054 -70.6113 169° South 517 595 31,000  Level FlightAware Transoceanic
Sun 11:47:00 PM 31.7686 -70.5795 169° South 517 595 31,000  Level FlightAware Transoceanic
Sun 11:48:00 PM 31.6318 -70.5478 169° South 517 595 31,000  Level FlightAware Transoceanic
Sun 11:49:00 PM 31.4949 -70.5162 169° South 517 595 31,000  Level FlightAware Transoceanic
Sun 11:49:33 PM 31.4500 -70.5000 169° South 514 592 31,000  Level New York Oceanic (ODAPS)
Sun 11:50:00 PM 31.2835 -70.4648 169° South 521 600 31,000  Level FlightAware Transoceanic
Sun 11:51:00 PM 31.1363 -70.4315 169° South 521 600 31,000  Level FlightAware Transoceanic
Sun 11:52:00 PM 30.9890 -70.3983 169° South 521 600 31,000  Level FlightAware Transoceanic
Sun 11:53:00 PM 30.8418 -70.3653 169° South 521 600 31,000  Level FlightAware Transoceanic
Sun 11:54:00 PM 30.6945 -70.3323 169° South 521 600 31,000  Level FlightAware Transoceanic
Sun 11:55:00 PM 30.6625 -70.3245 169° South 514 592 31,000  Level FlightAware Transoceanic
Sun 11:56:00 PM 30.5313 -70.2956 169° South 514 592 31,000  Level FlightAware Transoceanic
Sun 11:57:00 PM 30.4000 -70.2667 169° South 514 592 31,000  Level FlightAware Transoceanic
Sun 11:57:05 PM 30.3667 -70.2500 169° South 516 594 31,000  Level New York Oceanic (ODAPS)
Sun 11:57:54 PM 30.2167 -70.2167 169° South 514 592 31,000  Level New York Oceanic (ODAPS)
Sun 11:58:00 PM 30.2617 -70.2352 169° South 514 592 31,000  Level FlightAware Transoceanic
Sun 11:59:00 PM 30.1233 -70.2039 169° South 514 592 31,000  Level FlightAware Transoceanic
Mon 12:00:00 AM 29.9850 -70.1726 169° South 514 592 31,000  Level FlightAware Transoceanic
Mon 12:01:00 AM 29.8466 -70.1414 169° South 514 592 31,000  Level FlightAware Transoceanic
Mon 12:02:00 AM 29.7083 -70.1104 169° South 514 592 31,000  Level FlightAware Transoceanic
Mon 12:03:00 AM 29.5200 -70.0606 169° South 516 594 31,000  Level FlightAware Transoceanic
Mon 12:04:00 AM 29.3713 -70.0281 169° South 514 592 31,000  Level FlightAware Transoceanic
Mon 12:05:00 AM 29.2304 -69.9970 169° South 514 592 31,000  Level FlightAware Transoceanic
Mon 12:06:00 AM 29.0895 -69.9659 169° South 514 592 31,000  Level FlightAware Transoceanic
Mon 12:07:00 AM 28.9486 -69.9350 169° South 514 592 31,000  Level FlightAware Transoceanic
Mon 12:08:00 AM 28.8077 -69.9041 169° South 514 592 31,000  Level FlightAware Transoceanic
Mon 12:09:00 AM 28.6667 -69.8733 169° South 514 592 31,000  Level FlightAware Transoceanic
Mon 12:10:00 AM 28.5258 -69.8426 169° South 514 592 31,000  Level FlightAware Transoceanic
Mon 12:11:00 AM 28.3848 -69.8120 169° South 514 592 31,000  Level FlightAware Transoceanic
Mon 12:11:52 AM 28.3167 -69.8000 169° South 496 571 31,000  Level New York Oceanic (ODAPS)
Mon 12:12:00 AM 28.2439 -69.7815 169° South 514 592 31,000  Level FlightAware Transoceanic
Mon 12:13:00 AM 28.1029 -69.7510 169° South 514 592 31,000  Level FlightAware Transoceanic
Mon 12:14:00 AM 27.9619 -69.7206 169° South 514 592 31,000  Level FlightAware Transoceanic
Mon 12:15:00 AM 27.8209 -69.6903 169° South 514 592 31,000  Level FlightAware Transoceanic
Mon 12:15:53 AM 27.7667 -69.6833 169° South 494 568 31,000  Level New York Oceanic (ODAPS)
Mon 12:16:00 AM 27.6800 -69.6601 169° South 514 592 31,000  Level FlightAware Transoceanic
Mon 12:17:00 AM 27.5389 -69.6300 169° South 514 592 31,000  Level FlightAware Transoceanic
Mon 12:18:00 AM 27.4878 -69.6211 169° South 496 571 31,000  Level FlightAware Transoceanic
Mon 12:19:00 AM 27.3497 -69.5916 169° South 496 571 31,000  Level FlightAware Transoceanic
Mon 12:20:00 AM 27.2115 -69.5621 169° South 496 571 31,000  Level FlightAware Transoceanic
Mon 12:21:00 AM 27.0733 -69.5327 169° South 496 571 31,000  Level FlightAware Transoceanic
Mon 12:22:00 AM 26.9369 -69.5054 169° South 494 568 31,000  Level FlightAware Transoceanic
Mon 12:23:00 AM 26.7986 -69.4760 169° South 494 568 31,000  Level FlightAware Transoceanic
Mon 12:23:42 AM 26.7167 -69.4500 170° South 492 566 31,000  Level New York Oceanic (ODAPS)
Mon 12:24:00 AM 26.6603 -69.4466 169° South 494 568 31,000  Level FlightAware Transoceanic
Mon 12:25:00 AM 26.5220 -69.4174 169° South 494 568 31,000  Level FlightAware Transoceanic
Mon 12:25:55 AM 26.4333 -69.3833 170° South 492 566 31,000  Level New York Oceanic (ODAPS)
Mon 12:26:00 AM 26.3836 -69.3882 169° South 494 568 31,000  Level FlightAware Transoceanic
Mon 12:27:00 AM 26.2453 -69.3590 169° South 494 568 31,000  Level FlightAware Transoceanic
Mon 12:28:00 AM 26.1070 -69.3300 169° South 494 568 31,000  Level FlightAware Transoceanic
Mon 12:29:00 AM 25.9245 -69.2872 170° South 492 566 31,000  Level FlightAware Transoceanic
Mon 12:30:00 AM 25.7924 -69.2603 170° South 492 566 31,000  Level FlightAware Transoceanic
Mon 12:31:00 AM 25.6604 -69.2334 170° South 492 566 31,000  Level FlightAware Transoceanic
Mon 12:32:00 AM 25.5213 -69.2022 170° South 492 566 31,000  Level FlightAware Transoceanic
Mon 12:33:00 AM 25.3910 -69.1766 170° South 492 566 31,000  Level FlightAware Transoceanic
Mon 12:34:00 AM 25.2607 -69.1510 170° South 492 566 31,000  Level FlightAware Transoceanic
Mon 12:35:00 AM 25.1303 -69.1255 170° South 492 566 31,000  Level FlightAware Transoceanic
Mon 12:36:00 AM 25.0000 -69.1000 146° Southeast 492 566 31,000  Level FlightAware Transoceanic
Mon 12:36:18 AM 24.9567 -69.0750 146° Southeast 485 558 31,000  Level Miami Center
Mon 12:37:00 AM 24.8871 -69.0148 146° Southeast 492 566 31,000  Level FlightAware Transoceanic
Mon 12:37:16 AM 24.8197 -69.0472 170° South 490 564 31,000  Level Miami Center
Mon 12:38:00 AM 24.7741 -68.9297 146° Southeast 492 566 31,000  Level FlightAware Transoceanic
Mon 12:38:17 AM 24.6800 -69.0106 167° South 503 579 31,000  Level Miami Center
Mon 12:39:00 AM 24.6610 -68.8448 146° Southeast 492 566 31,000  Level FlightAware Transoceanic
Mon 12:39:17 AM 24.5450 -68.9781 168° South 509 586 31,000  Level Miami Center
Mon 12:40:00 AM 24.5479 -68.7600 146° Southeast 492 566 31,000  Level FlightAware Transoceanic
Mon 12:40:15 AM 24.4142 -68.9500 169° South 493 567 31,000  Level Miami Center
Mon 12:41:00 AM 24.4348 -68.6754 146° Southeast 492 566 31,000  Level FlightAware Transoceanic
Mon 12:41:18 AM 24.2789 -68.9175 168° South 493 567 31,000  Level Miami Center
Mon 12:42:22 AM 24.1436 -68.8831 167° South 493 567 31,000  Level Miami Center
Mon 12:43:22 AM 24.0083 -68.8508 168° South 493 567 31,000  Level Miami Center
Mon 12:44:27 AM 23.8436 -68.8092 167° South 498 573 31,000  Level Miami Center
Mon 12:45:27 AM 23.7106 -68.7769 167° South 498 573 31,000  Level Miami Center
Mon 12:46:29 AM 23.5772 -68.7422 167° South 492 566 31,000  Level Miami Center
Mon 12:47:29 AM 23.4422 -68.7125 169° South 492 566 31,000  Level Miami Center
Mon 12:48:30 AM 23.3069 -68.6783 167° South 492 566 31,000  Level Miami Center
Mon 12:49:30 AM 23.1992 -68.6536 168° South 492 566 31,000  Level Miami Center
Mon 12:50:27 AM 23.0408 -68.6164 168° South 499 574 31,000  Level Miami Center
Mon 12:51:27 AM 22.9078 -68.5822 167° South 499 574 31,000  Level Miami Center
Mon 12:52:28 AM 22.7683 -68.5483 167° South 499 574 31,000  Level Miami Center
Mon 12:53:27 AM 22.6353 -68.5189 168° South 488 562 31,000  Level Miami Center
Mon 12:54:28 AM 22.5025 -68.4892 168° South 495 570 31,000  Level Miami Center
Mon 12:55:27 AM 22.3675 -68.4575 168° South 496 571 31,000  Level Miami Center
Mon 12:56:27 AM 22.2344 -68.4258 168° South 491 565 31,000  Level Miami Center
Mon 12:57:29 AM 22.1056 -68.3958 168° South 484 557 31,000  Level Miami Center
Mon 12:58:30 AM 21.9747 -68.3642 167° South 470 541 31,000  Level Miami Center
Mon 12:59:27 AM 21.8356 -68.3328 168° South 491 565 31,000  Level Miami Center
Mon 01:00:29 AM 21.7069 -68.3033 168° South 491 565 31,000  Level Miami Center
Mon 01:01:30 AM 21.5675 -68.2700 167° South 491 565 31,000  Level Miami Center
Mon 01:02:29 AM 21.4494 -68.2442 168° South 491 565 31,000  Level Miami Center
Mon 01:03:27 AM 21.3142 -68.2106 167° South 491 565 31,000  Level Miami Center
Mon 01:04:28 AM 21.1667 -68.1778 168° South 491 565 31,000  Level Miami Center
Mon 01:05:27 AM 21.0422 -68.1503 168° South 491 565 31,000  Level Miami Center
Mon 01:06:27 AM 20.9031 -68.1150 167° South 502 578 31,000  Level Miami Center
Mon 01:07:27 AM 20.7997 -68.0197 139° Southeast 468 539 31,000  Level Miami Center
Mon 01:13:42 AM 20.1790 -67.2820 139° Southeast 528 608 31,000  Level FlightAware ADS-B
Mon 01:14:17 AM 20.1230 -67.2190 133° Southeast 528 608 31,000  Level FlightAware ADS-B
Mon 01:15:02 AM 20.0430 -67.1270 133° Southeast 527 606 31,000  Level FlightAware ADS-B
Mon 01:15:47 AM 19.9770 -67.0510 133° Southeast 529 609 31,000  Level FlightAware ADS-B
Mon 01:16:27 AM 19.9040 -66.9690 133° Southeast 530 610 31,000  Level FlightAware ADS-B
Mon 01:17:12 AM 19.8280 -66.8820 133° Southeast 527 606 31,000  Level FlightAware ADS-B
Mon 01:17:52 AM 19.7610 -66.8060 133° Southeast 527 606 31,000  Level FlightAware ADS-B
Mon 01:18:32 AM 19.6940 -66.7300 133° Southeast 524 603 31,000  Level FlightAware ADS-B
Mon 01:19:17 AM 19.6210 -66.6480 133° Southeast 523 602 31,000  Level FlightAware ADS-B
Mon 01:19:57 AM 19.5550 -66.5720 133° Southeast 522 601 31,000  Level FlightAware ADS-B
Mon 01:20:42 AM 19.4780 -66.4860 134° Southeast 522 601 31,000  Level FlightAware ADS-B
Mon 01:21:22 AM 19.4120 -66.4110 133° Southeast 522 601 31,000  Level FlightAware ADS-B
Mon 01:22:07 AM 19.3400 -66.3300 133° Southeast 520 598 31,000  Level FlightAware ADS-B
Mon 01:22:42 AM 19.2800 -66.2630 133° Southeast 520 598 31,000  Level FlightAware ADS-B
Mon 01:23:27 AM 19.2080 -66.1820 133° Southeast 520 598 31,000  Level FlightAware ADS-B
Mon 01:24:12 AM 19.1310 -66.0950 133° Southeast 521 600 31,000  Level FlightAware ADS-B
Mon 01:24:52 AM 19.0650 -66.0220 134° Southeast 523 602 31,000  Level FlightAware ADS-B
Mon 01:25:32 AM 18.9980 -65.9470 133° Southeast 524 603 31,000  Level FlightAware ADS-B
Mon 01:26:12 AM 18.9320 -65.8720 133° Southeast 524 603 31,000  Level FlightAware ADS-B
Mon 01:26:57 AM 18.8580 -65.7900 134° Southeast 525 604 31,000  Level FlightAware ADS-B
Mon 01:27:42 AM 18.7820 -65.7050 133° Southeast 527 606 31,000  Level FlightAware ADS-B
Mon 01:28:22 AM 18.7130 -65.6290 134° Southeast 527 606 31,000  Level FlightAware ADS-B
Mon 01:29:07 AM 18.6400 -65.5470 133° Southeast 528 608 31,000  Level FlightAware ADS-B
Mon 01:29:47 AM 18.5730 -65.4730 134° Southeast 528 608 31,000  Level FlightAware ADS-B
Mon 01:30:27 AM 18.5050 -65.3980 134° Southeast 529 609 31,000  Level FlightAware ADS-B
Mon 01:31:12 AM 18.4360 -65.3200 133° Southeast 529 609 31,000  Level FlightAware ADS-B
Mon 01:31:52 AM 18.3590 -65.2360 134° Southeast 529 609 31,000  Level FlightAware ADS-B
Mon 01:32:37 AM 18.2880 -65.1570 133° Southeast 529 609 31,000  Level FlightAware ADS-B
Mon 01:33:17 AM 18.2250 -65.0870 133° Southeast 529 609 31,000  Level FlightAware ADS-B
Mon 01:33:57 AM 18.1680 -65.0230 133° Southeast 529 609 31,000  Level FlightAware ADS-B
Mon 01:34:37 AM 18.1110 -64.9590 133° Southeast 529 609 31,000  Level FlightAware ADS-B
Mon 01:35:17 AM 18.0540 -64.8950 133° Southeast 529 609 31,000  Level FlightAware ADS-B
Mon 01:35:57 AM 17.9980 -64.8310 133° Southeast 529 609 31,000  Level FlightAware ADS-B
Mon 01:36:47 AM 17.9270 -64.7510 133° Southeast 529 609 31,000  Level FlightAware ADS-B
Mon 01:37:27 AM 17.8700 -64.6870 133° Southeast 529 609 31,000  Level FlightAware ADS-B
Mon 01:38:07 AM 17.8130 -64.6230 133° Southeast 529 609 31,000  Level FlightAware ADS-B
Mon 01:38:47 AM 17.7560 -64.5590 133° Southeast 529 609 31,000  Level FlightAware ADS-B
Mon 01:39:37 AM 17.6860 -64.4790 133° Southeast 529 609 31,000  Level FlightAware ADS-B
Mon 01:40:17 AM 17.6290 -64.4150 133° Southeast 529 609 31,000  Level FlightAware ADS-B
Mon 01:40:57 AM 17.5720 -64.3510 133° Southeast 529 609 31,000  Level FlightAware ADS-B
Mon 01:41:37 AM 17.5150 -64.2870 133° Southeast 529 609 31,000  Level FlightAware ADS-B
Mon 01:42:17 AM 17.4580 -64.2240 133° Southeast 529 609 31,000  Level FlightAware ADS-B
Mon 01:42:48 AM 17.2333 -64.0167 133° Southeast 530 610 31,000  Level San Juan Center
Mon 01:43:49 AM 17.1333 -63.9000 132° Southeast 530 610 31,000  Level San Juan Center
Mon 01:44:49 AM 17.0167 -63.7833 136° Southeast 530 610 31,000  Level San Juan Center
Mon 01:45:49 AM 16.9333 -63.6833 131° Southeast 540 621 31,000  Level San Juan Center
Mon 01:46:50 AM 16.8167 -63.5667 136° Southeast 540 621 31,000  Level San Juan Center
Mon 01:47:50 AM 16.7167 -63.4500 132° Southeast 540 621 31,000  Level San Juan Center
Mon 01:48:50 AM 16.6167 -63.3333 132° Southeast 540 621 31,000  Level San Juan Center
Mon 01:49:50 AM 16.5000 -63.2333 141° Southeast 530 610 31,000  Level San Juan Center
Mon 01:50:51 AM 16.4167 -63.1167 127° Southeast 500 575 31,000  Level San Juan Center
Mon 01:52:00 AM 16.3043 -63.0043 136° Southeast  Level FlightAware Approximate
Mon 01:59:00 AM 15.6746 -62.2699 132° Southeast  Level FlightAware Approximate
Mon 01:59:37 AM 15.4570 -62.2480 132° Southeast 517 595 31,000  Level FlightAware ADS-B
Mon 02:00:17 AM 15.3750 -62.2080 155° Southeast 517 595 31,000  Level FlightAware ADS-B
Mon 02:00:57 AM 15.2850 -62.1630 154° Southeast 517 595 31,000  Level FlightAware ADS-B
Mon 02:01:42 AM 15.1860 -62.1130 154° Southeast 519 597 31,000 776 Level FlightAware ADS-B
Mon 02:02:22 AM 15.1000 -62.0700 154° Southeast 516 594 32,100 1,412 Climbing FlightAware ADS-B
Mon 02:03:07 AM 15.0050 -62.0230 154° Southeast 506 582 33,000 635 Climbing FlightAware ADS-B
Mon 02:03:47 AM 14.9250 -61.9830 154° Southeast 506 582 33,000  Level FlightAware ADS-B
Mon 02:04:27 AM 14.8450 -61.9430 154° Southeast 503 579 33,000  Level FlightAware ADS-B
Mon 02:05:12 AM 14.7500 -61.8960 154° Southeast 502 578 33,000  Level FlightAware ADS-B
Mon 02:05:52 AM 14.6710 -61.8570 154° Southeast 501 577 33,000  Level FlightAware ADS-B
Mon 02:06:32 AM 14.5760 -61.8100 154° Southeast 503 579 33,000  Level FlightAware ADS-B
Mon 02:07:12 AM 14.4920 -61.7680 154° Southeast 505 581 33,000  Level FlightAware ADS-B
Mon 02:08:02 AM 14.3860 -61.7150 154° Southeast 506 582 33,000  Level FlightAware ADS-B
Mon 02:08:57 AM 14.2820 -61.6640 155° Southeast 507 583 33,000  Level FlightAware ADS-B
Mon 02:09:42 AM 14.1930 -61.5970 144° Southeast 523 602 33,000  Level FlightAware ADS-B
Mon 02:10:17 AM 14.1390 -61.5270 128° Southeast 527 606 33,000  Level FlightAware ADS-B
Mon 02:11:02 AM 14.0690 -61.4340 128° Southeast 525 604 33,000  Level FlightAware ADS-B
Mon 02:11:57 AM 13.9840 -61.3200 128° Southeast 524 603 33,000  Level FlightAware ADS-B
Mon 02:12:42 AM 13.9270 -61.2330 124° Southeast 524 603 33,000  Level FlightAware ADS-B
Mon 02:13:22 AM 13.8730 -61.1430 122° Southeast 526 605 33,000  Level FlightAware ADS-B
Mon 02:14:07 AM 13.8240 -61.0490 118° Southeast 524 603 33,000  Level FlightAware ADS-B
Mon 02:14:42 AM 13.7810 -60.9670 118° Southeast 524 603 33,000  Level FlightAware ADS-B
Mon 02:15:32 AM 13.7280 -60.8660 118° Southeast 523 602 33,000  Level FlightAware ADS-B
Mon 02:16:27 AM 13.6670 -60.7460 118° Southeast 525 604 33,000  Level FlightAware ADS-B
Mon 02:17:07 AM 13.6250 -60.6530 115° Southeast 527 606 33,000  Level FlightAware ADS-B
Mon 02:17:52 AM 13.5830 -60.5450 112° Southeast 529 609 33,000  Level FlightAware ADS-B
Mon 02:18:32 AM 13.5440 -60.4480 112° Southeast 529 609 33,000  Level FlightAware ADS-B
Mon 02:19:12 AM 13.5050 -60.3520 113° Southeast 529 609 33,000  Level FlightAware ADS-B
Mon 02:19:52 AM 13.4730 -60.2700 112° Southeast 531 611 33,000  Level FlightAware ADS-B
Mon 02:20:32 AM 13.4410 -60.1870 112° Southeast 531 611 33,000  Level FlightAware ADS-B
Mon 02:21:22 AM 13.3840 -60.0580 114° Southeast 531 611 33,000  Level FlightAware ADS-B
Mon 02:22:02 AM 13.3400 -59.9690 117° Southeast 524 603 33,000  Level FlightAware ADS-B
Mon 02:22:57 AM 13.2570 -59.8620 129° Southeast 519 597 33,000  Level FlightAware ADS-B
Mon 02:23:47 AM 13.1880 -59.7870 133° Southeast 516 594 33,000  Level FlightAware ADS-B
Mon 02:24:32 AM 13.1030 -59.6790 129° Southeast 527 606 33,000  Level FlightAware ADS-B
Mon 02:25:12 AM 13.0610 -59.6130 123° Southeast 521 600 33,000  Level FlightAware ADS-B
Mon 02:25:32 AM 13.0130 -59.5670 137° Southeast 509 586 33,000  Level FlightAware ADS-B
Mon 02:26:12 AM 12.9360 -59.5300 155° Southeast 498 573 33,000  Level FlightAware ADS-B
Mon 02:26:52 AM 12.8390 -59.5190 174° South 490 564 33,000  Level FlightAware ADS-B
Mon 02:27:52 AM 12.7100 -59.5120 177° South 488 562 33,000  Level FlightAware ADS-B
Mon 02:28:37 AM 12.6050 -59.5050 176° South 488 562 33,000  Level FlightAware ADS-B
Mon 02:29:12 AM 12.5320 -59.5000 176° South 488 562 33,000  Level FlightAware ADS-B
Mon 02:30:02 AM 12.4360 -59.4930 176° South 488 562 33,000  Level FlightAware ADS-B
Mon 02:30:42 AM 12.3600 -59.4880 176° South 488 562 33,000  Level FlightAware ADS-B
Mon 02:31:22 AM 12.2830 -59.4820 176° South 488 562 33,000  Level FlightAware ADS-B
Mon 02:32:02 AM 12.2070 -59.4770 176° South 488 562 33,000  Level FlightAware ADS-B
Mon 02:32:42 AM 12.1300 -59.4710 176° South 488 562 33,000 11 Level FlightAware ADS-B
Mon 02:35:00 AM 11.8373 -59.3639 160° South  Level Estimated
Mon 02:36:00 AM 11.7100 -59.3175 160° South  Level Estimated
Mon 02:37:00 AM 11.5828 -59.2710 160° South  Level Estimated
Mon 02:38:00 AM 11.4555 -59.2247 160° South  Level Estimated
Mon 02:39:00 AM 11.3282 -59.1783 160° South  Level Estimated
Mon 02:40:00 AM 11.2009 -59.1320 160° South  Level Estimated
Mon 02:41:00 AM 11.0736 -59.0858 160° South  Level Estimated
Mon 02:42:00 AM 10.9462 -59.0395 160° South  Level Estimated
Mon 02:43:00 AM 10.8189 -58.9934 160° South  Level Estimated
Mon 02:44:00 AM 10.6916 -58.9472 160° South  Level Estimated
Mon 02:45:00 AM 10.5642 -58.9011 160° South  Level Estimated
Mon 02:46:00 AM 10.4369 -58.8550 160° South  Level Estimated
Mon 02:47:00 AM 10.3096 -58.8090 160° South  Level Estimated
Mon 02:48:00 AM 10.1822 -58.7630 160° South  Level Estimated
Mon 02:49:00 AM 10.0548 -58.7171 160° South  Level Estimated
Mon 02:50:00 AM 9.9275 -58.6712 160° South  Level Estimated
Mon 02:51:00 AM 9.8001 -58.6253 160° South  Level Estimated
Mon 02:52:00 AM 9.6727 -58.5794 160° South  Level Estimated
Mon 02:53:00 AM 9.5453 -58.5336 160° South  Level Estimated
Mon 02:54:00 AM 9.4179 -58.4878 160° South  Level Estimated
Mon 02:55:00 AM 9.2905 -58.4421 160° South  Level Estimated
Mon 02:56:00 AM 9.1631 -58.3964 160° South  Level Estimated
Mon 02:57:00 AM 9.0357 -58.3507 161° South  Level Estimated
Mon 02:58:00 AM 8.9083 -58.3051 161° South  Level Estimated
Mon 02:59:00 AM 8.7809 -58.2594 161° South  Level Estimated
Mon 03:00:00 AM 8.6534 -58.2139 161° South  Level Estimated
Mon 03:01:00 AM 8.5260 -58.1683 161° South  Level Estimated
Mon 03:02:00 AM 8.3986 -58.1228 161° South  Level Estimated
Mon 03:03:00 AM 8.2711 -58.0773 161° South  Level Estimated
Mon 03:04:00 AM 8.1437 -58.0318 161° South  Level Estimated
Mon 03:05:00 AM 8.0162 -57.9864 161° South  Level Estimated
Mon 03:06:00 AM 7.8888 -57.9410 161° South  Level Estimated
Mon 03:07:00 AM 7.7613 -57.8956 161° South  Level Estimated
Mon 03:08:00 AM 7.6338 -57.8503 161° South  Level Estimated
Mon 03:09:00 AM 7.5064 -57.8050 161° South  Level Estimated
Mon 03:10:00 AM 7.3789 -57.7597 161° South  Level Estimated
Mon 03:11:00 AM 7.2514 -57.7144 161° South  Level Estimated
Mon 03:12:00 AM 7.1239 -57.6692 161° South  Level Estimated
Mon 03:13:00 AM 6.9964 -57.6239 161° South  Level Estimated
Mon 03:14:00 AM 6.8689 -57.5788 161° South  Level Estimated
Mon 03:15:00 AM 6.7414 -57.5336 161° South  Level Estimated
Mon 03:16:00 AM 6.6139 -57.4884 161° South  Level Estimated
Mon 03:17:00 AM 6.4864 -57.4433 161° South  Level Estimated
Mon 03:18:00 AM 6.3589 -57.3982 161° South  Level Estimated
Mon 03:19:00 AM 6.2355 -57.3546 161° South  Level Estimated
Mon 03:20:00 AM 6.1121 -57.3110 161° South  Level Estimated
Mon 03:21:00 AM 5.9886 -57.2674 161° South  Level Estimated
Mon 03:22:00 AM 5.8652 -57.2238 161° South  Level Estimated
Mon 03:23:00 AM 5.7418 -57.1803 161° South  Level Estimated
Mon 03:24:00 AM 5.6183 -57.1367 161° South  Level Estimated
Mon 03:25:00 AM 5.4949 -57.0932 161° South  Level Estimated
Mon 03:26:00 AM 5.3715 -57.0497 161° South  Level Estimated
Mon 03:27:00 AM 5.2480 -57.0062 161° South  Level Estimated
Mon 03:28:00 AM 5.1246 -56.9628 161° South  Level Estimated
Mon 03:29:00 AM 5.0011 -56.9193 161° South  Level Estimated
Mon 03:30:00 AM 4.8777 -56.8759 161° South  Level Estimated
Mon 03:31:00 AM 4.7542 -56.8325 161° South  Level Estimated
Mon 03:32:00 AM 4.6307 -56.7891 161° South  Level Estimated
Mon 03:33:00 AM 4.5073 -56.7457 161° South  Level Estimated
Mon 03:34:00 AM 4.3838 -56.7024 161° South  Level Estimated
Mon 03:35:00 AM 4.2603 -56.6590 161° South  Level Estimated
Mon 03:36:00 AM 4.1369 -56.6157 161° South  Level Estimated
Mon 03:37:00 AM 4.0134 -56.5723 161° South  Level Estimated
Mon 03:38:00 AM 3.8899 -56.5290 161° South  Level Estimated
Mon 03:39:00 AM 3.7664 -56.4857 161° South  Level Estimated
Mon 03:40:00 AM 3.6430 -56.4425 161° South  Level Estimated
Mon 03:41:00 AM 3.5195 -56.3992 161° South  Level Estimated
Mon 03:42:00 AM 3.3960 -56.3559 161° South  Level Estimated
Mon 03:43:00 AM 3.2725 -56.3127 161° South  Level Estimated
Mon 03:44:00 AM 3.1490 -56.2694 161° South  Level Estimated
Mon 03:45:00 AM 3.0255 -56.2262 161° South  Level Estimated
Mon 03:46:00 AM 2.9021 -56.1830 161° South  Level Estimated
Mon 03:47:00 AM 2.7786 -56.1398 161° South  Level Estimated
Mon 03:48:00 AM 2.6551 -56.0966 161° South  Level Estimated
Mon 03:49:00 AM 2.5316 -56.0534 161° South  Level Estimated
Mon 03:50:00 AM 2.4081 -56.0102 161° South  Level Estimated
Mon 03:51:00 AM 2.2846 -55.9670 161° South  Level Estimated
Mon 03:52:00 AM 2.1611 -55.9238 161° South  Level Estimated
Mon 03:53:00 AM 2.0376 -55.8807 161° South  Level Estimated
Mon 03:54:00 AM 1.9141 -55.8375 161° South  Level Estimated
Mon 03:55:00 AM 1.7906 -55.7944 161° South  Level Estimated
Mon 03:56:00 AM 1.6673 -55.7513 161° South  Level Estimated
Mon 03:57:00 AM 1.5440 -55.7082 161° South  Level Estimated
Mon 03:58:00 AM 1.4207 -55.6652 161° South  Level Estimated
Mon 03:59:00 AM 1.2974 -55.6222 161° South  Level Estimated
Mon 04:00:00 AM 1.1742 -55.5791 161° South  Level Estimated
Mon 04:01:00 AM 1.0509 -55.5361 161° South  Level Estimated
Mon 04:02:00 AM 0.9276 -55.4930 161° South  Level Estimated
Mon 04:03:00 AM 0.8043 -55.4500 161° South  Level Estimated
Mon 04:04:00 AM 0.6811 -55.4070 161° South  Level Estimated
Mon 04:05:00 AM 0.5578 -55.3639 161° South  Level Estimated
Mon 04:06:00 AM 0.4345 -55.3209 161° South  Level Estimated
Mon 04:07:00 AM 0.3112 -55.2779 161° South  Level Estimated
Mon 04:08:00 AM 0.1879 -55.2348 161° South  Level Estimated
Mon 04:09:00 AM 0.0646 -55.1918 161° South  Level Estimated
Mon 04:10:00 AM -0.0586 -55.1488 161° South  Level Estimated
Mon 04:11:00 AM -0.1819 -55.1058 161° South  Level Estimated
Mon 04:12:00 AM -0.3052 -55.0627 161° South  Level Estimated
Mon 04:13:00 AM -0.4285 -55.0197 161° South  Level Estimated
Mon 04:14:00 AM -0.5518 -54.9767 161° South  Level Estimated
Mon 04:15:00 AM -0.6750 -54.9336 161° South  Level Estimated
Mon 04:16:00 AM -0.7983 -54.8906 161° South  Level Estimated
Mon 04:17:00 AM -0.9216 -54.8476 161° South  Level Estimated
Mon 04:18:00 AM -1.0449 -54.8045 161° South  Level Estimated
Mon 04:19:00 AM -1.1681 -54.7615 161° South  Level Estimated
Mon 04:20:00 AM -1.2914 -54.7184 161° South  Level Estimated
Mon 04:21:00 AM -1.4147 -54.6754 161° South  Level Estimated
Mon 04:22:00 AM -1.5380 -54.6324 161° South  Level Estimated
Mon 04:23:00 AM -1.6613 -54.5893 161° South  Level Estimated
Mon 04:24:00 AM -1.7845 -54.5462 161° South  Level Estimated
Mon 04:25:00 AM -1.9078 -54.5032 161° South  Level Estimated
Mon 04:26:00 AM -2.0311 -54.4601 161° South  Level Estimated
Mon 04:27:00 AM -2.1544 -54.4170 161° South  Level Estimated
Mon 04:28:00 AM -2.2776 -54.3739 161° South  Level Estimated
Mon 04:29:00 AM -2.4009 -54.3308 161° South  Level Estimated
Mon 04:30:00 AM -2.5242 -54.2877 161° South  Level Estimated
Mon 04:31:00 AM -2.6474 -54.2446 161° South  Level Estimated
Mon 04:32:00 AM -2.7707 -54.2015 161° South  Level Estimated
Mon 04:33:00 AM -2.8940 -54.1584 161° South  Level Estimated
Mon 04:34:00 AM -3.0172 -54.1152 161° South  Level Estimated
Mon 04:35:00 AM -3.1405 -54.0721 161° South  Level Estimated
Mon 04:36:00 AM -3.2638 -54.0289 161° South  Level Estimated
Mon 04:37:00 AM -3.3870 -53.9857 161° South  Level Estimated
Mon 04:38:00 AM -3.5103 -53.9426 161° South  Level Estimated
Mon 04:39:00 AM -3.6335 -53.8994 161° South  Level Estimated
Mon 04:40:00 AM -3.7568 -53.8562 161° South  Level Estimated
Mon 04:41:00 AM -3.8800 -53.8129 161° South  Level Estimated
Mon 04:42:00 AM -4.0033 -53.7697 161° South  Level Estimated
Mon 04:43:00 AM -4.1265 -53.7265 161° South  Level Estimated
Mon 04:44:00 AM -4.2497 -53.6832 161° South  Level Estimated
Mon 04:45:00 AM -4.3730 -53.6399 161° South  Level Estimated
Mon 04:46:00 AM -4.4962 -53.5967 161° South  Level Estimated
Mon 04:47:00 AM -4.6195 -53.5534 161° South  Level Estimated
Mon 04:48:00 AM -4.7427 -53.5101 161° South  Level Estimated
Mon 04:49:00 AM -4.8659 -53.4667 161° South  Level Estimated
Mon 04:50:00 AM -4.9891 -53.4234 161° South  Level Estimated
Mon 04:51:00 AM -5.1124 -53.3800 161° South  Level Estimated
Mon 04:52:00 AM -5.2356 -53.3366 161° South  Level Estimated
Mon 04:53:00 AM -5.3588 -53.2933 161° South  Level Estimated
Mon 04:54:00 AM -5.4820 -53.2498 161° South  Level Estimated
Mon 04:55:00 AM -5.6052 -53.2064 161° South  Level Estimated
Mon 04:56:00 AM -5.7284 -53.1630 161° South  Level Estimated
Mon 04:57:00 AM -5.8516 -53.1195 161° South  Level Estimated
Mon 04:58:00 AM -5.9748 -53.0760 161° South  Level Estimated
Mon 04:59:00 AM -6.0980 -53.0325 161° South  Level Estimated
Mon 05:00:00 AM -6.2212 -52.9890 161° South  Level Estimated
Mon 05:01:00 AM -6.3444 -52.9454 161° South  Level Estimated
Mon 05:02:00 AM -6.4676 -52.9018 161° South  Level Estimated
Mon 05:03:00 AM -6.5908 -52.8582 161° South  Level Estimated
Mon 05:04:00 AM -6.7140 -52.8146 161° South  Level Estimated
Mon 05:05:00 AM -6.8371 -52.7710 161° South  Level Estimated
Mon 05:06:00 AM -6.9603 -52.7274 161° South  Level Estimated
Mon 05:07:00 AM -7.0835 -52.6837 161° South  Level Estimated
Mon 05:08:00 AM -7.2066 -52.6400 161° South  Level Estimated
Mon 05:09:00 AM -7.3298 -52.5963 161° South  Level Estimated
Mon 05:10:00 AM -7.4530 -52.5525 161° South  Level Estimated
Mon 05:11:00 AM -7.5761 -52.5087 161° South  Level Estimated
Mon 05:12:00 AM -7.6993 -52.4649 161° South  Level Estimated
Mon 05:13:00 AM -7.8224 -52.4211 161° South  Level Estimated
Mon 05:14:00 AM -7.9455 -52.3773 161° South  Level Estimated
Mon 05:15:00 AM -8.0687 -52.3334 161° South  Level Estimated
Mon 05:16:00 AM -8.1918 -52.2895 161° South  Level Estimated
Mon 05:17:00 AM -8.3149 -52.2456 161° South  Level Estimated
Mon 05:18:00 AM -8.4380 -52.2016 161° South  Level Estimated
Mon 05:19:00 AM -8.5611 -52.1576 161° South  Level Estimated
Mon 05:20:00 AM -8.6843 -52.1136 161° South  Level Estimated
Mon 05:21:00 AM -8.8074 -52.0696 161° South  Level Estimated
Mon 05:22:00 AM -8.9305 -52.0255 161° South  Level Estimated
Mon 05:23:00 AM -9.0535 -51.9814 161° South  Level Estimated
Mon 05:24:00 AM -9.1762 -51.9374 161° South  Level Estimated
Mon 05:25:00 AM -9.2988 -51.8934 161° South  Level Estimated
Mon 05:26:00 AM -9.4214 -51.8494 160° South  Level Estimated
Mon 05:27:00 AM -9.5441 -51.8053 160° South  Level Estimated
Mon 05:28:00 AM -9.6667 -51.7612 160° South  Level Estimated
Mon 05:29:00 AM -9.7893 -51.7171 160° South  Level Estimated
Mon 05:30:00 AM -9.9119 -51.6730 160° South  Level Estimated
Mon 05:31:00 AM -10.0345 -51.6288 160° South  Level Estimated
Mon 05:32:00 AM -10.1571 -51.5845 160° South  Level Estimated
Mon 05:32:27 AM -10.1280 -50.9980 160° South 501 577 35,000  Level FlightAware ADS-B
Mon 05:33:00 AM -10.2796 -51.5403 160° South  Level Estimated
Mon 05:33:12 AM -10.2120 -50.9550 153° Southeast 502 578 35,000  Level FlightAware ADS-B
Mon 05:33:47 AM -10.2110 -50.9560 315° West 502 578 35,000  Level FlightAware ADS-B
Mon 05:34:42 AM -10.4070 -50.8570 154° Southeast 502 578 35,000  Level FlightAware ADS-B
Mon 05:35:27 AM -10.3580 -50.8830 332° Northwest 35,000  Level FlightAware ADS-B
Mon 05:38:00 AM -10.6753 -50.7824 163° South  Level Estimated
Mon 05:38:47 AM -10.9170 -50.5980 163° South 502 578 35,000  Level FlightAware ADS-B
Mon 05:39:27 AM -10.9880 -50.5610 153° Southeast 502 578 35,000  Level FlightAware ADS-B
Mon 05:40:07 AM -11.0580 -50.5250 153° Southeast 502 578 35,000  Level FlightAware ADS-B
Mon 05:41:37 AM -11.2760 -50.4150 154° Southeast 504 580 35,000  Level FlightAware ADS-B
Mon 05:42:27 AM -11.3110 -50.3970 153° Southeast 503 579 35,000  Level FlightAware ADS-B
Mon 05:43:02 AM -11.4510 -50.3260 154° Southeast 503 579 35,000  Level FlightAware ADS-B
Mon 05:44:07 AM -11.5800 -50.2600 153° Southeast 504 580 35,000  Level FlightAware ADS-B
Mon 05:44:47 AM -11.6510 -50.2230 153° Southeast 504 580 35,000  Level FlightAware ADS-B
Mon 05:46:52 AM -11.7180 -50.1900 164° South 504 580 35,000  Level FlightAware ADS-B
Mon 05:47:00 AM -11.9282 -50.1398 164° South  Level Estimated
Mon 05:47:27 AM -12.0020 -50.0440 153° Southeast 506 582 35,000  Level FlightAware ADS-B
Mon 05:48:42 AM -12.1620 -49.9620 153° Southeast 506 582 35,000  Level FlightAware ADS-B
Mon 05:49:27 AM -12.2470 -49.9180 153° Southeast 506 582 35,000  Level FlightAware ADS-B
Mon 05:50:07 AM -12.3180 -49.8810 153° Southeast 506 582 35,000  Level FlightAware ADS-B
Mon 05:50:47 AM -12.3890 -49.8440 153° Southeast 506 582 35,000  Level FlightAware ADS-B
Mon 05:51:37 AM -12.4780 -49.7980 153° Southeast 506 582 35,000  Level FlightAware ADS-B
Mon 05:52:17 AM -12.5490 -49.7610 153° Southeast 506 582 35,000  Level FlightAware ADS-B
Mon 05:52:57 AM -12.6190 -49.7240 153° Southeast 506 582 35,000  Level FlightAware ADS-B
Mon 05:53:37 AM -12.6900 -49.6870 153° Southeast 506 582 35,000  Level FlightAware ADS-B
Mon 05:54:17 AM -12.7610 -49.6500 153° Southeast 506 582 35,000  Level FlightAware ADS-B
Mon 05:55:07 AM -12.8500 -49.6030 153° Southeast 506 582 35,000  Level FlightAware ADS-B
Mon 05:55:47 AM -12.9210 -49.5660 153° Southeast 506 582 35,000 86 Level FlightAware ADS-B
Mon 05:56:17 AM -12.1620 -49.9620 333° Northwest 35,000 91 Level FlightAware ADS-B
Mon 05:58:00 AM -12.3771 -49.8991 164° South  Level Estimated
Mon 05:59:00 AM -12.5025 -49.8624 164° South  Level Estimated
Mon 06:00:00 AM -12.6278 -49.8257 164° South  Level Estimated
Mon 06:01:00 AM -12.7531 -49.7890 164° South  Level Estimated
Mon 06:02:00 AM -12.8784 -49.7522 164° South  Level Estimated
Mon 06:03:00 AM -13.0037 -49.7154 164° South  Level Estimated
Mon 06:04:00 AM -13.1290 -49.6785 164° South  Level Estimated
Mon 06:05:00 AM -13.2542 -49.6416 164° South  Level Estimated
Mon 06:06:00 AM -13.3795 -49.6047 164° South  Level Estimated
Mon 06:06:47 AM -14.4470 -48.7760 164° South 506 582 36,000  Level FlightAware ADS-B
Mon 06:07:22 AM -14.5190 -48.7380 153° Southeast 507 583 36,000  Level FlightAware ADS-B
Mon 06:08:07 AM -14.6170 -48.6860 153° Southeast 509 586 36,000  Level FlightAware ADS-B
Mon 06:08:52 AM -14.7090 -48.6280 149° Southeast 514 592 36,000  Level FlightAware ADS-B
Mon 06:09:32 AM -14.7810 -48.5660 140° Southeast 517 595 36,000  Level FlightAware ADS-B
Mon 06:10:17 AM -14.8650 -48.4940 140° Southeast 517 595 36,000  Level FlightAware ADS-B
Mon 06:10:57 AM -14.9480 -48.4470 151° Southeast 513 590 36,000  Level FlightAware ADS-B
Mon 06:11:37 AM -15.0280 -48.4110 157° South 513 590 36,000  Level FlightAware ADS-B
Mon 06:12:22 AM -15.1360 -48.3620 156° South 511 588 36,000  Level FlightAware ADS-B
Mon 06:13:02 AM -15.2200 -48.3240 156° South 510 587 36,000  Level FlightAware ADS-B
Mon 06:13:47 AM -15.3180 -48.2790 156° South 511 588 36,000  Level FlightAware ADS-B
Mon 06:14:27 AM -15.4050 -48.2390 156° South 508 585 36,000  Level FlightAware ADS-B
Mon 06:15:12 AM -15.4960 -48.1970 156° South 508 585 36,000  Level FlightAware ADS-B
Mon 06:15:52 AM -15.5880 -48.1540 156° South 507 583 36,000  Level FlightAware ADS-B
Mon 06:16:27 AM -15.6640 -48.1180 155° Southeast 507 583 36,000  Level FlightAware ADS-B
Mon 06:17:17 AM -15.7680 -48.0700 156° South 507 583 36,000  Level FlightAware ADS-B
Mon 06:17:57 AM -15.8520 -48.0330 157° South 507 583 36,000  Level FlightAware ADS-B
Mon 06:18:42 AM -15.9520 -48.0110 168° South 502 578 36,000  Level FlightAware ADS-B
Mon 06:19:17 AM -16.0210 -47.9880 162° South 502 578 36,000  Level FlightAware ADS-B
Mon 06:19:57 AM -16.1290 -47.9880 180° South 498 573 36,000  Level FlightAware ADS-B
Mon 06:20:42 AM -16.2200 -47.9770 173° South 498 573 36,000  Level FlightAware ADS-B
Mon 06:21:27 AM -16.3290 -47.9660 174° South 497 572 36,000  Level FlightAware ADS-B
Mon 06:22:12 AM -16.4390 -47.9580 176° South 496 571 36,000  Level FlightAware ADS-B
Mon 06:22:47 AM -16.5230 -47.9510 175° South 495 570 36,000  Level FlightAware ADS-B
Mon 06:23:32 AM -16.6280 -47.9430 176° South 494 568 36,000  Level FlightAware ADS-B
Mon 06:24:07 AM -16.7080 -47.9370 176° South 494 568 36,000  Level FlightAware ADS-B
Mon 06:24:52 AM -16.7970 -47.9290 175° South 494 568 36,000  Level FlightAware ADS-B
Mon 06:25:32 AM -16.8750 -47.9220 175° South 494 568 36,000  Level FlightAware ADS-B
Mon 06:26:22 AM -16.9710 -47.9130 175° South 494 568 36,000  Level FlightAware ADS-B
Mon 06:27:02 AM -17.0490 -47.9060 175° South 494 568 36,000  Level FlightAware ADS-B
Mon 06:27:42 AM -17.1260 -47.8990 175° South 494 568 36,000  Level FlightAware ADS-B
Mon 06:28:22 AM -17.2040 -47.8920 175° South 494 568 36,000  Level FlightAware ADS-B
Mon 06:29:12 AM -17.3000 -47.8830 175° South 494 568 36,000  Level FlightAware ADS-B
Mon 06:29:52 AM -17.3780 -47.8760 175° South 494 568 36,000  Level FlightAware ADS-B
Mon 06:30:32 AM -17.4550 -47.8690 175° South 494 568 36,000  Level FlightAware ADS-B
Mon 06:31:12 AM -17.5330 -47.8610 174° South 494 568 36,000  Level FlightAware ADS-B
Mon 06:31:52 AM -17.6100 -47.8540 175° South 494 568 36,000  Level FlightAware ADS-B
Mon 06:32:42 AM -17.7070 -47.8450 175° South 494 568 36,000  Level FlightAware ADS-B
Mon 06:33:22 AM -17.7840 -47.8380 175° South 494 568 36,000  Level FlightAware ADS-B
Mon 06:34:02 AM -17.8620 -47.8310 175° South 494 568 36,000  Level FlightAware ADS-B
Mon 06:36:00 AM -18.1121 -47.7719 167° South  Level Estimated
Mon 06:37:00 AM -18.2393 -47.7419 167° South  Level Estimated
Mon 06:38:00 AM -18.3664 -47.7117 167° South  Level Estimated
Mon 06:39:00 AM -18.4935 -47.6815 167° South  Level Estimated
Mon 06:40:00 AM -18.6207 -47.6513 167° South  Level Estimated
Mon 06:41:00 AM -18.7478 -47.6210 167° South  Level Estimated
Mon 06:42:00 AM -18.8750 -47.5907 167° South  Level Estimated
Mon 06:42:42 AM -19.2250 -47.5840 167° South 495 570 36,000  Level FlightAware ADS-B
Mon 06:43:37 AM -19.3340 -47.5680 172° South 495 570 36,000  Level FlightAware ADS-B
Mon 06:44:32 AM -19.4780 -47.5480 173° South 497 572 36,000  Level FlightAware ADS-B
Mon 06:45:17 AM -19.5370 -47.5390 172° South 497 572 36,000  Level FlightAware ADS-B
Mon 06:45:57 AM -19.6340 -47.5250 172° South 498 573 36,000  Level FlightAware ADS-B
Mon 06:46:42 AM -19.7370 -47.5100 172° South 499 574 36,000  Level FlightAware ADS-B
Mon 06:47:22 AM -19.8260 -47.5020 175° South 497 572 36,000  Level FlightAware ADS-B
Mon 06:48:17 AM -19.9940 -47.4900 176° South 497 572 36,000  Level FlightAware ADS-B
Mon 06:49:02 AM -20.0990 -47.4820 176° South 496 571 36,000  Level FlightAware ADS-B
Mon 06:49:42 AM -20.1910 -47.4760 176° South 495 570 36,000  Level FlightAware ADS-B
Mon 06:50:22 AM -20.2820 -47.4690 176° South 495 570 36,000  Level FlightAware ADS-B
Mon 06:51:07 AM -20.3850 -47.4620 176° South 495 570 36,000  Level FlightAware ADS-B
Mon 06:51:47 AM -20.4740 -47.4550 176° South 494 568 36,000  Level FlightAware ADS-B
Mon 06:52:27 AM -20.5640 -47.4490 176° South 495 570 36,000  Level FlightAware ADS-B
Mon 06:53:12 AM -20.6710 -47.4300 171° South 500 575 36,000  Level FlightAware ADS-B
Mon 06:53:52 AM -20.7620 -47.4130 170° South 500 575 36,000  Level FlightAware ADS-B
Mon 06:54:37 AM -20.8620 -47.3950 170° South 499 574 36,000  Level FlightAware ADS-B
Mon 06:55:17 AM -20.9540 -47.3800 171° South 499 574 36,000  Level FlightAware ADS-B
Mon 06:55:57 AM -21.0420 -47.3650 171° South 499 574 36,000  Level FlightAware ADS-B
Mon 06:56:42 AM -21.1520 -47.3460 171° South 500 575 36,000  Level FlightAware ADS-B
Mon 06:57:17 AM -21.2230 -47.3340 171° South 501 577 36,000  Level FlightAware ADS-B
Mon 06:58:07 AM -21.3440 -47.3140 171° South 502 578 36,000  Level FlightAware ADS-B
Mon 06:58:47 AM -21.4360 -47.2980 171° South 503 579 36,000  Level FlightAware ADS-B
Mon 06:59:32 AM -21.5430 -47.2800 171° South 503 579 36,000 -160 Level FlightAware ADS-B
Mon 07:00:02 AM -21.6110 -47.2680 171° South 506 582 35,800 -1,629 Descending FlightAware ADS-B
Mon 07:00:42 AM -21.7040 -47.2520 171° South 508 585 34,100 -2,800 Descending FlightAware ADS-B
Mon 07:01:17 AM -21.7860 -47.2380 171° South 514 592 32,300 -2,677 Descending FlightAware ADS-B
Mon 07:01:47 AM -21.8550 -47.2260 171° South 509 586 31,200 -2,100 Descending FlightAware ADS-B
Mon 07:02:37 AM -21.9670 -47.2060 171° South 497 572 29,500 -2,021 Descending FlightAware ADS-B
Mon 07:03:22 AM -22.0630 -47.1890 171° South 486 559 28,000 -2,047 Descending FlightAware ADS-B
Mon 07:04:02 AM -22.1500 -47.1740 171° South 476 548 26,600 -2,025 Descending FlightAware ADS-B
Mon 07:04:42 AM -22.2360 -47.1580 170° South 465 535 25,300 -2,000 Descending FlightAware ADS-B
Mon 07:05:17 AM -22.3140 -47.1440 171° South 456 525 24,100 -1,906 Descending FlightAware ADS-B
Mon 07:06:07 AM -22.4120 -47.1270 171° South 442 509 22,600 -1,832 Descending FlightAware ADS-B
Mon 07:06:52 AM -22.5010 -47.1110 171° South 432 497 21,200 -1,920 Descending FlightAware ADS-B
Mon 07:07:22 AM -22.5670 -47.0980 170° South 427 491 20,200 -1,835 Descending FlightAware ADS-B
Mon 07:08:17 AM -22.6610 -47.0630 161° South 419 482 18,600 -1,832 Descending FlightAware ADS-B
Mon 07:08:57 AM -22.7370 -47.0300 158° South 408 470 17,300 -1,800 Descending FlightAware ADS-B
Mon 07:09:37 AM -22.8000 -47.0040 159° South 372 428 16,200 -1,624 Descending FlightAware ADS-B
Mon 07:10:22 AM -22.8710 -46.9740 159° South 323 372 15,000 -1,553 Descending FlightAware ADS-B
Mon 07:11:02 AM -22.9240 -46.9520 159° South 319 367 14,000 -1,575 Descending FlightAware ADS-B
Mon 07:11:42 AM -22.9780 -46.9300 159° South 301 346 12,900 -1,624 Descending FlightAware ADS-B
Mon 07:12:27 AM -23.0350 -46.9050 158° South 295 339 11,700 -1,575 Descending FlightAware ADS-B
Mon 07:13:02 AM -23.0760 -46.8880 159° South 288 331 10,800 -1,275 Descending FlightAware ADS-B
Mon 07:13:47 AM -23.1280 -46.8660 159° South 284 327 10,000 -1,114 Descending FlightAware ADS-B
Mon 07:14:12 AM -23.1580 -46.8540 160° South 273 314 9,500 -1,200 Descending FlightAware ADS-B
Mon 07:14:47 AM -23.2020 -46.8350 158° South 274 315 8,800 -1,100 Descending FlightAware ADS-B
Mon 07:15:12 AM -23.2290 -46.8240 159° South 273 314 8,400 -1,091 Descending FlightAware ADS-B
Mon 07:15:42 AM -23.2670 -46.8070 158° South 279 321 7,800 -982 Descending FlightAware ADS-B
Mon 07:16:07 AM -23.2940 -46.7960 159° South 267 307 7,500 -600 Descending FlightAware ADS-B
Mon 07:16:32 AM -23.3230 -46.7840 159° South 255 293 7,300 -480 Descending FlightAware ADS-B
Mon 07:16:57 AM -23.3500 -46.7720 158° South 254 292 7,100 -545 Descending FlightAware ADS-B
Mon 07:17:27 AM -23.3850 -46.7560 157° South 254 292 6,800 -900 Descending FlightAware ADS-B
Mon 07:17:57 AM -23.4220 -46.7400 158° South 253 291 6,200 -1,108 Descending FlightAware ADS-B
Mon 07:18:32 AM -23.4540 -46.7270 160° South 255 293 5,600 -1,200 Descending FlightAware ADS-B
Mon 07:18:37 AM -23.4620 -46.7230 155° Southeast 258 297 5,400 -600 Descending FlightAware ADS-B
Mon 07:19:12 AM -23.4870 -46.6940 133° Southeast 238 274 5,200 -300 Descending FlightAware ADS-B
Mon 07:19:17 AM -23.4880 -46.6890 102° East 234 269 5,200 -150 Level FlightAware ADS-B
Mon 07:19:52 AM -23.4810 -46.6430 81° East 213 245 5,100 -554 Descending FlightAware ADS-B
Mon 07:20:22 AM -23.4720 -46.6110 73° East 211 243 4,600 -1,100 Descending FlightAware ADS-B
Mon 07:20:52 AM -23.4640 -46.5820 73° East 190 219 4,000 -1,067 Descending FlightAware ADS-B
Mon 07:21:07 AM -23.4610 -46.5690 76° East 178 205 3,800 -900 Descending FlightAware ADS-B
Mon 07:21:32 AM -23.4550 -46.5480 73° East 158 182 3,400 -900 Descending FlightAware ADS-B
Mon 07:21:47 AM -23.4520 -46.5360 75° East 159 183 3,200 -800 Descending FlightAware ADS-B
Mon 07:22:17 AM -23.4460 -46.5140 73° East 153 176 2,800 -764 Descending FlightAware ADS-B
Mon 07:22:42 AM -23.4410 -46.4950 74° East 152 175 2,500 -720 Descending FlightAware ADS-B

Login

Don't have an account? Register now (free) for customized features, flight alerts, and more!